sensor_id;sensor_type;location;lat;lon;timestamp;P1;durP1;ratioP1;P2;durP2;ratioP2
72674;SDS011;60752;53.962;9.614;2022-12-01T00:00:41;62.43;;;21.60;;
72674;SDS011;60752;53.962;9.614;2022-12-01T00:05:42;59.13;;;21.30;;
72674;SDS011;60752;53.962;9.614;2022-12-01T00:10:42;58.93;;;21.47;;
72674;SDS011;60752;53.962;9.614;2022-12-01T00:15:44;56.77;;;21.37;;
72674;SDS011;60752;53.962;9.614;2022-12-01T00:20:44;63.33;;;20.45;;
72674;SDS011;60752;53.962;9.614;2022-12-01T00:25:44;61.37;;;20.90;;
72674;SDS011;60752;53.962;9.614;2022-12-01T00:30:46;65.23;;;23.00;;
72674;SDS011;60752;53.962;9.614;2022-12-01T00:35:47;60.67;;;22.95;;
72674;SDS011;60752;53.962;9.614;2022-12-01T00:40:47;55.67;;;22.37;;
72674;SDS011;60752;53.962;9.614;2022-12-01T00:45:49;62.27;;;21.77;;
72674;SDS011;60752;53.962;9.614;2022-12-01T00:50:50;64.35;;;21.92;;
72674;SDS011;60752;53.962;9.614;2022-12-01T00:55:52;59.97;;;23.13;;
72674;SDS011;60752;53.962;9.614;2022-12-01T01:00:57;49.73;;;20.90;;
72674;SDS011;60752;53.962;9.614;2022-12-01T01:06:02;60.08;;;22.17;;
72674;SDS011;60752;53.962;9.614;2022-12-01T01:11:04;63.22;;;23.13;;
72674;SDS011;60752;53.962;9.614;2022-12-01T01:16:09;60.23;;;22.90;;
72674;SDS011;60752;53.962;9.614;2022-12-01T01:21:14;64.38;;;22.38;;
72674;SDS011;60752;53.962;9.614;2022-12-01T01:26:16;59.30;;;22.45;;
72674;SDS011;60752;53.962;9.614;2022-12-01T01:31:20;54.60;;;20.27;;
72674;SDS011;60752;53.962;9.614;2022-12-01T01:36:22;56.57;;;21.70;;
72674;SDS011;60752;53.962;9.614;2022-12-01T01:41:23;60.85;;;23.92;;
72674;SDS011;60752;53.962;9.614;2022-12-01T01:46:26;57.50;;;23.30;;
72674;SDS011;60752;53.962;9.614;2022-12-01T01:51:28;54.10;;;20.42;;
72674;SDS011;60752;53.962;9.614;2022-12-01T01:56:33;60.63;;;23.07;;
72674;SDS011;60752;53.962;9.614;2022-12-01T02:01:36;62.03;;;24.30;;
72674;SDS011;60752;53.962;9.614;2022-12-01T02:06:36;65.25;;;24.65;;
72674;SDS011;60752;53.962;9.614;2022-12-01T02:11:41;57.67;;;22.60;;
72674;SDS011;60752;53.962;9.614;2022-12-01T02:17:04;69.38;;;23.23;;
72674;SDS011;60752;53.962;9.614;2022-12-01T02:22:17;58.90;;;22.50;;
72674;SDS011;60752;53.962;9.614;2022-12-01T02:27:33;59.22;;;23.50;;
72674;SDS011;60752;53.962;9.614;2022-12-01T02:32:51;63.00;;;22.65;;
72674;SDS011;60752;53.962;9.614;2022-12-01T02:38:05;62.33;;;23.17;;
72674;SDS011;60752;53.962;9.614;2022-12-01T02:43:11;55.73;;;22.77;;
72674;SDS011;60752;53.962;9.614;2022-12-01T02:48:20;62.05;;;22.95;;
72674;SDS011;60752;53.962;9.614;2022-12-01T02:53:24;65.13;;;22.52;;
72674;SDS011;60752;53.962;9.614;2022-12-01T02:58:25;55.70;;;21.60;;
72674;SDS011;60752;53.962;9.614;2022-12-01T03:03:31;60.17;;;23.87;;
72674;SDS011;60752;53.962;9.614;2022-12-01T03:08:42;56.38;;;21.95;;
72674;SDS011;60752;53.962;9.614;2022-12-01T03:13:50;68.23;;;23.57;;
72674;SDS011;60752;53.962;9.614;2022-12-01T03:19:03;63.50;;;23.45;;
72674;SDS011;60752;53.962;9.614;2022-12-01T03:24:09;65.65;;;23.45;;
72674;SDS011;60752;53.962;9.614;2022-12-01T03:29:14;61.47;;;21.20;;
72674;SDS011;60752;53.962;9.614;2022-12-01T03:34:21;65.18;;;21.42;;
72674;SDS011;60752;53.962;9.614;2022-12-01T03:39:26;59.80;;;22.15;;
72674;SDS011;60752;53.962;9.614;2022-12-01T03:44:32;61.07;;;22.33;;
72674;SDS011;60752;53.962;9.614;2022-12-01T03:49:36;64.47;;;23.53;;
72674;SDS011;60752;53.962;9.614;2022-12-01T03:54:41;59.67;;;22.42;;
72674;SDS011;60752;53.962;9.614;2022-12-01T03:59:45;62.78;;;22.35;;
72674;SDS011;60752;53.962;9.614;2022-12-01T04:04:48;64.27;;;22.97;;
72674;SDS011;60752;53.962;9.614;2022-12-01T04:09:48;54.22;;;19.92;;
72674;SDS011;60752;53.962;9.614;2022-12-01T04:14:49;56.93;;;22.13;;
72674;SDS011;60752;53.962;9.614;2022-12-01T04:19:51;56.07;;;21.77;;
72674;SDS011;60752;53.962;9.614;2022-12-01T04:24:51;57.97;;;21.10;;
72674;SDS011;60752;53.962;9.614;2022-12-01T04:29:52;59.80;;;21.77;;
72674;SDS011;60752;53.962;9.614;2022-12-01T04:34:54;60.53;;;21.20;;
72674;SDS011;60752;53.962;9.614;2022-12-01T04:39:55;56.70;;;21.65;;
72674;SDS011;60752;53.962;9.614;2022-12-01T04:44:55;60.28;;;22.33;;
72674;SDS011;60752;53.962;9.614;2022-12-01T04:49:57;56.33;;;21.00;;
72674;SDS011;60752;53.962;9.614;2022-12-01T04:54:57;56.70;;;21.73;;
72674;SDS011;60752;53.962;9.614;2022-12-01T04:59:57;58.03;;;22.50;;
72674;SDS011;60752;53.962;9.614;2022-12-01T05:04:59;62.23;;;20.30;;
72674;SDS011;60752;53.962;9.614;2022-12-01T05:10:00;58.78;;;20.60;;
72674;SDS011;60752;53.962;9.614;2022-12-01T05:15:00;59.43;;;22.80;;
72674;SDS011;60752;53.962;9.614;2022-12-01T05:20:02;50.83;;;21.40;;
72674;SDS011;60752;53.962;9.614;2022-12-01T05:25:03;61.85;;;22.20;;
72674;SDS011;60752;53.962;9.614;2022-12-01T05:30:04;65.93;;;22.27;;
72674;SDS011;60752;53.962;9.614;2022-12-01T05:35:07;56.85;;;21.88;;
72674;SDS011;60752;53.962;9.614;2022-12-01T05:40:08;58.78;;;22.27;;
72674;SDS011;60752;53.962;9.614;2022-12-01T05:45:09;59.43;;;21.87;;
72674;SDS011;60752;53.962;9.614;2022-12-01T05:50:11;54.50;;;20.88;;
72674;SDS011;60752;53.962;9.614;2022-12-01T05:55:12;59.13;;;22.10;;
72674;SDS011;60752;53.962;9.614;2022-12-01T06:00:13;58.17;;;21.47;;
72674;SDS011;60752;53.962;9.614;2022-12-01T06:05:15;56.58;;;19.77;;
72674;SDS011;60752;53.962;9.614;2022-12-01T06:10:15;58.55;;;22.27;;
72674;SDS011;60752;53.962;9.614;2022-12-01T06:15:16;51.47;;;19.63;;
72674;SDS011;60752;53.962;9.614;2022-12-01T06:20:18;62.70;;;23.70;;
72674;SDS011;60752;53.962;9.614;2022-12-01T06:25:18;62.90;;;22.45;;
72674;SDS011;60752;53.962;9.614;2022-12-01T06:30:19;63.63;;;22.50;;
72674;SDS011;60752;53.962;9.614;2022-12-01T06:35:21;48.30;;;19.73;;
72674;SDS011;60752;53.962;9.614;2022-12-01T06:40:21;61.60;;;20.20;;
72674;SDS011;60752;53.962;9.614;2022-12-01T06:45:22;59.27;;;20.87;;
72674;SDS011;60752;53.962;9.614;2022-12-01T06:50:23;58.40;;;21.47;;
72674;SDS011;60752;53.962;9.614;2022-12-01T06:55:24;66.80;;;20.77;;
72674;SDS011;60752;53.962;9.614;2022-12-01T07:00:25;56.93;;;20.17;;
72674;SDS011;60752;53.962;9.614;2022-12-01T07:05:27;58.13;;;21.70;;
72674;SDS011;60752;53.962;9.614;2022-12-01T07:10:27;61.28;;;21.80;;
72674;SDS011;60752;53.962;9.614;2022-12-01T07:15:27;66.57;;;22.80;;
72674;SDS011;60752;53.962;9.614;2022-12-01T07:20:29;60.47;;;22.43;;
72674;SDS011;60752;53.962;9.614;2022-12-01T07:30:37;64.67;;;22.80;;
72674;SDS011;60752;53.962;9.614;2022-12-01T07:35:39;58.37;;;22.10;;
72674;SDS011;60752;53.962;9.614;2022-12-01T07:40:39;58.17;;;23.67;;
72674;SDS011;60752;53.962;9.614;2022-12-01T07:45:39;66.63;;;25.80;;
72674;SDS011;60752;53.962;9.614;2022-12-01T07:50:41;62.37;;;22.17;;
72674;SDS011;60752;53.962;9.614;2022-12-01T07:55:46;63.13;;;22.85;;
72674;SDS011;60752;53.962;9.614;2022-12-01T08:00:47;61.92;;;21.92;;
72674;SDS011;60752;53.962;9.614;2022-12-01T08:05:55;62.30;;;23.30;;
72674;SDS011;60752;53.962;9.614;2022-12-01T08:10:58;65.33;;;22.90;;
72674;SDS011;60752;53.962;9.614;2022-12-01T08:16:01;67.13;;;24.20;;
72674;SDS011;60752;53.962;9.614;2022-12-01T08:21:04;51.28;;;20.27;;
72674;SDS011;60752;53.962;9.614;2022-12-01T08:26:06;55.92;;;21.70;;
72674;SDS011;60752;53.962;9.614;2022-12-01T08:31:08;63.13;;;20.87;;
72674;SDS011;60752;53.962;9.614;2022-12-01T08:36:10;54.75;;;21.50;;
72674;SDS011;60752;53.962;9.614;2022-12-01T08:41:11;51.65;;;21.08;;
72674;SDS011;60752;53.962;9.614;2022-12-01T08:46:12;63.33;;;21.77;;
72674;SDS011;60752;53.962;9.614;2022-12-01T08:51:16;59.42;;;21.10;;
72674;SDS011;60752;53.962;9.614;2022-12-01T08:56:19;56.60;;;19.33;;
72674;SDS011;60752;53.962;9.614;2022-12-01T09:01:21;59.10;;;20.47;;
72674;SDS011;60752;53.962;9.614;2022-12-01T09:06:23;55.42;;;20.33;;
72674;SDS011;60752;53.962;9.614;2022-12-01T09:11:23;56.17;;;21.00;;
72674;SDS011;60752;53.962;9.614;2022-12-01T09:16:23;59.73;;;19.50;;
72674;SDS011;60752;53.962;9.614;2022-12-01T09:21:26;59.77;;;19.67;;
72674;SDS011;60752;53.962;9.614;2022-12-01T09:26:28;60.35;;;22.48;;
72674;SDS011;60752;53.962;9.614;2022-12-01T09:31:29;58.28;;;21.05;;
72674;SDS011;60752;53.962;9.614;2022-12-01T09:36:31;58.37;;;21.27;;
72674;SDS011;60752;53.962;9.614;2022-12-01T09:41:34;56.05;;;20.85;;
72674;SDS011;60752;53.962;9.614;2022-12-01T09:46:37;48.77;;;18.63;;
72674;SDS011;60752;53.962;9.614;2022-12-01T09:51:43;53.30;;;18.35;;
72674;SDS011;60752;53.962;9.614;2022-12-01T09:56:44;48.42;;;18.77;;
72674;SDS011;60752;53.962;9.614;2022-12-01T10:01:47;55.20;;;20.60;;
72674;SDS011;60752;53.962;9.614;2022-12-01T10:06:55;53.83;;;19.30;;
72674;SDS011;60752;53.962;9.614;2022-12-01T10:12:00;53.38;;;20.38;;
72674;SDS011;60752;53.962;9.614;2022-12-01T10:17:12;52.95;;;17.52;;
72674;SDS011;60752;53.962;9.614;2022-12-01T10:22:42;45.00;;;17.73;;
72674;SDS011;60752;53.962;9.614;2022-12-01T10:33:13;48.67;;;19.67;;
72674;SDS011;60752;53.962;9.614;2022-12-01T10:38:24;51.03;;;17.87;;
72674;SDS011;60752;53.962;9.614;2022-12-01T10:43:27;48.05;;;18.00;;
72674;SDS011;60752;53.962;9.614;2022-12-01T10:48:31;54.70;;;18.80;;
72674;SDS011;60752;53.962;9.614;2022-12-01T10:53:33;47.07;;;17.10;;
72674;SDS011;60752;53.962;9.614;2022-12-01T10:58:38;59.30;;;17.95;;
72674;SDS011;60752;53.962;9.614;2022-12-01T11:03:47;49.70;;;15.77;;
72674;SDS011;60752;53.962;9.614;2022-12-01T11:08:52;48.13;;;16.08;;
72674;SDS011;60752;53.962;9.614;2022-12-01T11:13:55;45.58;;;15.93;;
72674;SDS011;60752;53.962;9.614;2022-12-01T11:19:05;42.90;;;15.10;;
72674;SDS011;60752;53.962;9.614;2022-12-01T11:24:12;42.90;;;14.27;;
72674;SDS011;60752;53.962;9.614;2022-12-01T11:29:26;44.58;;;15.00;;
72674;SDS011;60752;53.962;9.614;2022-12-01T11:34:31;48.87;;;16.70;;
72674;SDS011;60752;53.962;9.614;2022-12-01T11:39:35;46.30;;;16.07;;
72674;SDS011;60752;53.962;9.614;2022-12-01T11:44:37;45.47;;;15.60;;
72674;SDS011;60752;53.962;9.614;2022-12-01T11:49:39;47.15;;;15.07;;
72674;SDS011;60752;53.962;9.614;2022-12-01T11:54:45;48.83;;;16.67;;
72674;SDS011;60752;53.962;9.614;2022-12-01T11:59:54;44.08;;;15.63;;
72674;SDS011;60752;53.962;9.614;2022-12-01T12:05:03;41.97;;;14.87;;
72674;SDS011;60752;53.962;9.614;2022-12-01T12:10:21;50.75;;;16.85;;
72674;SDS011;60752;53.962;9.614;2022-12-01T12:15:31;41.33;;;14.23;;
72674;SDS011;60752;53.962;9.614;2022-12-01T12:20:39;42.17;;;14.93;;
72674;SDS011;60752;53.962;9.614;2022-12-01T12:25:49;48.78;;;13.70;;
72674;SDS011;60752;53.962;9.614;2022-12-01T12:31:00;45.45;;;13.52;;
72674;SDS011;60752;53.962;9.614;2022-12-01T12:36:09;41.80;;;13.87;;
72674;SDS011;60752;53.962;9.614;2022-12-01T12:41:22;41.90;;;15.00;;
72674;SDS011;60752;53.962;9.614;2022-12-01T12:46:30;48.22;;;14.73;;
72674;SDS011;60752;53.962;9.614;2022-12-01T12:51:38;43.00;;;14.80;;
72674;SDS011;60752;53.962;9.614;2022-12-01T12:56:44;38.57;;;12.67;;
72674;SDS011;60752;53.962;9.614;2022-12-01T13:01:48;51.63;;;14.75;;
72674;SDS011;60752;53.962;9.614;2022-12-01T13:06:55;39.38;;;12.63;;
72674;SDS011;60752;53.962;9.614;2022-12-01T13:12:03;40.60;;;13.17;;
72674;SDS011;60752;53.962;9.614;2022-12-01T13:17:19;34.55;;;11.75;;
72674;SDS011;60752;53.962;9.614;2022-12-01T13:22:23;35.70;;;12.13;;
72674;SDS011;60752;53.962;9.614;2022-12-01T13:27:31;31.73;;;11.57;;
72674;SDS011;60752;53.962;9.614;2022-12-01T13:32:36;34.93;;;12.43;;
72674;SDS011;60752;53.962;9.614;2022-12-01T13:37:38;40.55;;;13.18;;
72674;SDS011;60752;53.962;9.614;2022-12-01T13:42:40;33.50;;;12.50;;
72674;SDS011;60752;53.962;9.614;2022-12-01T13:47:46;37.08;;;11.20;;
72674;SDS011;60752;53.962;9.614;2022-12-01T13:52:49;36.47;;;12.20;;
72674;SDS011;60752;53.962;9.614;2022-12-01T13:58:17;35.87;;;11.40;;
72674;SDS011;60752;53.962;9.614;2022-12-01T14:03:38;36.00;;;10.73;;
72674;SDS011;60752;53.962;9.614;2022-12-01T14:08:43;38.08;;;12.27;;
72674;SDS011;60752;53.962;9.614;2022-12-01T14:13:49;40.33;;;13.00;;
72674;SDS011;60752;53.962;9.614;2022-12-01T14:18:53;36.33;;;12.07;;
72674;SDS011;60752;53.962;9.614;2022-12-01T14:23:58;36.03;;;12.30;;
72674;SDS011;60752;53.962;9.614;2022-12-01T14:29:09;32.35;;;12.68;;
72674;SDS011;60752;53.962;9.614;2022-12-01T14:34:22;35.03;;;11.40;;
72674;SDS011;60752;53.962;9.614;2022-12-01T14:39:25;33.13;;;11.55;;
72674;SDS011;60752;53.962;9.614;2022-12-01T14:44:30;31.75;;;8.93;;
72674;SDS011;60752;53.962;9.614;2022-12-01T14:49:38;30.40;;;10.93;;
72674;SDS011;60752;53.962;9.614;2022-12-01T14:54:42;28.70;;;10.80;;
72674;SDS011;60752;53.962;9.614;2022-12-01T14:59:47;32.20;;;10.23;;
72674;SDS011;60752;53.962;9.614;2022-12-01T15:05:07;38.43;;;11.50;;
72674;SDS011;60752;53.962;9.614;2022-12-01T15:10:14;30.97;;;9.80;;
72674;SDS011;60752;53.962;9.614;2022-12-01T15:15:19;31.15;;;10.18;;
72674;SDS011;60752;53.962;9.614;2022-12-01T15:20:28;35.90;;;11.65;;
72674;SDS011;60752;53.962;9.614;2022-12-01T15:25:30;32.60;;;10.93;;
72674;SDS011;60752;53.962;9.614;2022-12-01T15:30:33;34.83;;;10.77;;
72674;SDS011;60752;53.962;9.614;2022-12-01T15:35:33;30.45;;;10.68;;
72674;SDS011;60752;53.962;9.614;2022-12-01T15:40:34;24.43;;;9.70;;
72674;SDS011;60752;53.962;9.614;2022-12-01T15:50:47;27.73;;;10.43;;
72674;SDS011;60752;53.962;9.614;2022-12-01T15:55:58;27.90;;;10.75;;
72674;SDS011;60752;53.962;9.614;2022-12-01T16:01:01;27.98;;;9.00;;
72674;SDS011;60752;53.962;9.614;2022-12-01T16:06:07;35.73;;;11.00;;
72674;SDS011;60752;53.962;9.614;2022-12-01T16:11:11;28.05;;;10.48;;
72674;SDS011;60752;53.962;9.614;2022-12-01T16:16:22;32.20;;;12.15;;
72674;SDS011;60752;53.962;9.614;2022-12-01T16:21:31;23.87;;;10.13;;
72674;SDS011;60752;53.962;9.614;2022-12-01T16:26:33;30.00;;;11.00;;
72674;SDS011;60752;53.962;9.614;2022-12-01T16:31:34;34.30;;;11.13;;
72674;SDS011;60752;53.962;9.614;2022-12-01T16:36:35;28.43;;;10.83;;
72674;SDS011;60752;53.962;9.614;2022-12-01T16:41:36;36.70;;;11.32;;
72674;SDS011;60752;53.962;9.614;2022-12-01T16:46:36;31.40;;;11.17;;
72674;SDS011;60752;53.962;9.614;2022-12-01T16:51:38;27.70;;;9.97;;
72674;SDS011;60752;53.962;9.614;2022-12-01T16:56:38;28.90;;;9.50;;
72674;SDS011;60752;53.962;9.614;2022-12-01T17:01:39;29.67;;;9.43;;
72674;SDS011;60752;53.962;9.614;2022-12-01T17:06:40;29.23;;;10.23;;
72674;SDS011;60752;53.962;9.614;2022-12-01T17:11:41;32.17;;;11.40;;
72674;SDS011;60752;53.962;9.614;2022-12-01T17:16:41;26.47;;;8.87;;
72674;SDS011;60752;53.962;9.614;2022-12-01T17:21:43;40.80;;;15.40;;
72674;SDS011;60752;53.962;9.614;2022-12-01T17:26:43;28.97;;;10.83;;
72674;SDS011;60752;53.962;9.614;2022-12-01T17:31:44;26.47;;;10.90;;
72674;SDS011;60752;53.962;9.614;2022-12-01T17:36:45;31.73;;;10.33;;
72674;SDS011;60752;53.962;9.614;2022-12-01T17:41:46;25.98;;;9.95;;
72674;SDS011;60752;53.962;9.614;2022-12-01T17:46:46;27.27;;;9.80;;
72674;SDS011;60752;53.962;9.614;2022-12-01T17:51:48;31.47;;;10.57;;
72674;SDS011;60752;53.962;9.614;2022-12-01T17:56:48;27.75;;;9.30;;
72674;SDS011;60752;53.962;9.614;2022-12-01T18:01:49;27.63;;;10.00;;
72674;SDS011;60752;53.962;9.614;2022-12-01T18:06:51;28.20;;;9.20;;
72674;SDS011;60752;53.962;9.614;2022-12-01T18:11:52;25.70;;;10.10;;
72674;SDS011;60752;53.962;9.614;2022-12-01T18:16:53;31.53;;;12.13;;
72674;SDS011;60752;53.962;9.614;2022-12-01T18:21:54;29.17;;;10.33;;
72674;SDS011;60752;53.962;9.614;2022-12-01T18:26:55;28.20;;;9.75;;
72674;SDS011;60752;53.962;9.614;2022-12-01T18:31:56;30.57;;;11.00;;
72674;SDS011;60752;53.962;9.614;2022-12-01T18:36:59;35.95;;;10.43;;
72674;SDS011;60752;53.962;9.614;2022-12-01T18:42:03;29.70;;;10.03;;
72674;SDS011;60752;53.962;9.614;2022-12-01T18:47:03;30.75;;;10.48;;
72674;SDS011;60752;53.962;9.614;2022-12-01T18:52:05;31.87;;;12.33;;
72674;SDS011;60752;53.962;9.614;2022-12-01T18:57:05;30.58;;;11.35;;
72674;SDS011;60752;53.962;9.614;2022-12-01T19:02:06;34.60;;;11.63;;
72674;SDS011;60752;53.962;9.614;2022-12-01T19:07:08;31.03;;;11.00;;
72674;SDS011;60752;53.962;9.614;2022-12-01T19:12:08;28.65;;;10.15;;
72674;SDS011;60752;53.962;9.614;2022-12-01T19:17:08;35.60;;;11.50;;
72674;SDS011;60752;53.962;9.614;2022-12-01T19:22:10;38.90;;;13.20;;
72674;SDS011;60752;53.962;9.614;2022-12-01T19:27:13;37.17;;;11.23;;
72674;SDS011;60752;53.962;9.614;2022-12-01T19:32:17;40.75;;;12.73;;
72674;SDS011;60752;53.962;9.614;2022-12-01T19:37:18;37.77;;;10.80;;
72674;SDS011;60752;53.962;9.614;2022-12-01T19:42:19;42.10;;;14.37;;
72674;SDS011;60752;53.962;9.614;2022-12-01T19:47:19;46.27;;;12.77;;
72674;SDS011;60752;53.962;9.614;2022-12-01T19:52:21;48.77;;;12.97;;
72674;SDS011;60752;53.962;9.614;2022-12-01T19:57:21;50.58;;;13.98;;
72674;SDS011;60752;53.962;9.614;2022-12-01T20:02:22;46.70;;;14.20;;
72674;SDS011;60752;53.962;9.614;2022-12-01T20:07:23;42.20;;;13.10;;
72674;SDS011;60752;53.962;9.614;2022-12-01T20:12:24;50.20;;;13.82;;
72674;SDS011;60752;53.962;9.614;2022-12-01T20:17:24;47.63;;;13.10;;
72674;SDS011;60752;53.962;9.614;2022-12-01T20:22:29;69.23;;;18.47;;
72674;SDS011;60752;53.962;9.614;2022-12-01T20:27:30;52.08;;;16.00;;
72674;SDS011;60752;53.962;9.614;2022-12-01T20:32:31;44.40;;;13.40;;
72674;SDS011;60752;53.962;9.614;2022-12-01T20:37:33;53.92;;;16.38;;
72674;SDS011;60752;53.962;9.614;2022-12-01T20:42:34;59.17;;;15.43;;
72674;SDS011;60752;53.962;9.614;2022-12-01T20:47:34;52.57;;;15.73;;
72674;SDS011;60752;53.962;9.614;2022-12-01T20:52:36;63.57;;;16.27;;
72674;SDS011;60752;53.962;9.614;2022-12-01T20:57:36;52.70;;;15.97;;
72674;SDS011;60752;53.962;9.614;2022-12-01T21:02:37;54.10;;;15.47;;
72674;SDS011;60752;53.962;9.614;2022-12-01T21:07:39;45.03;;;14.27;;
72674;SDS011;60752;53.962;9.614;2022-12-01T21:12:39;52.70;;;13.80;;
72674;SDS011;60752;53.962;9.614;2022-12-01T21:17:44;48.45;;;13.07;;
72674;SDS011;60752;53.962;9.614;2022-12-01T21:22:49;45.55;;;13.60;;
72674;SDS011;60752;53.962;9.614;2022-12-01T21:27:51;51.33;;;14.33;;
72674;SDS011;60752;53.962;9.614;2022-12-01T21:32:59;47.13;;;12.55;;
72674;SDS011;60752;53.962;9.614;2022-12-01T21:38:12;39.38;;;12.07;;
72674;SDS011;60752;53.962;9.614;2022-12-01T21:43:14;42.07;;;14.70;;
72674;SDS011;60752;53.962;9.614;2022-12-01T21:48:17;42.50;;;13.00;;
72674;SDS011;60752;53.962;9.614;2022-12-01T21:53:20;51.10;;;13.30;;
72674;SDS011;60752;53.962;9.614;2022-12-01T21:58:22;41.17;;;12.70;;
72674;SDS011;60752;53.962;9.614;2022-12-01T22:03:28;39.87;;;12.97;;
72674;SDS011;60752;53.962;9.614;2022-12-01T22:08:33;44.67;;;12.60;;
72674;SDS011;60752;53.962;9.614;2022-12-01T22:13:39;40.53;;;12.35;;
72674;SDS011;60752;53.962;9.614;2022-12-01T22:18:42;37.80;;;12.40;;
72674;SDS011;60752;53.962;9.614;2022-12-01T22:23:46;40.67;;;13.70;;
72674;SDS011;60752;53.962;9.614;2022-12-01T22:28:47;46.05;;;13.93;;
72674;SDS011;60752;53.962;9.614;2022-12-01T22:33:54;53.57;;;14.50;;
72674;SDS011;60752;53.962;9.614;2022-12-01T22:38:59;48.73;;;13.23;;
72674;SDS011;60752;53.962;9.614;2022-12-01T22:44:00;55.55;;;15.43;;
72674;SDS011;60752;53.962;9.614;2022-12-01T22:49:01;50.20;;;14.57;;
72674;SDS011;60752;53.962;9.614;2022-12-01T22:54:30;46.95;;;14.15;;
72674;SDS011;60752;53.962;9.614;2022-12-01T22:59:34;45.20;;;12.60;;
72674;SDS011;60752;53.962;9.614;2022-12-01T23:04:37;46.13;;;15.00;;
72674;SDS011;60752;53.962;9.614;2022-12-01T23:09:41;54.55;;;14.27;;
72674;SDS011;60752;53.962;9.614;2022-12-01T23:14:43;47.73;;;12.90;;
72674;SDS011;60752;53.962;9.614;2022-12-01T23:19:45;40.85;;;11.90;;
72674;SDS011;60752;53.962;9.614;2022-12-01T23:24:47;44.90;;;13.37;;
72674;SDS011;60752;53.962;9.614;2022-12-01T23:29:48;46.63;;;12.82;;
72674;SDS011;60752;53.962;9.614;2022-12-01T23:34:48;42.37;;;12.13;;
72674;SDS011;60752;53.962;9.614;2022-12-01T23:39:53;43.83;;;12.83;;
72674;SDS011;60752;53.962;9.614;2022-12-01T23:44:54;45.63;;;13.70;;
72674;SDS011;60752;53.962;9.614;2022-12-01T23:49:56;40.43;;;11.57;;
72674;SDS011;60752;53.962;9.614;2022-12-01T23:55:00;35.63;;;11.03;;
